Time;durP1;ratioP1;P1;durP2;ratioP2;P2;SDS_P1;SDS_P2;PMS_P1;PMS_P2;Temp;Humidity;BMP_temperature;BMP_pressure;BME280_temperature;BME280_humidity;BME280_pressure;Samples;Min_cycle;Max_cycle;Signal;HPM_P1;HPM_P2
2021/03/11 00:00:56;;;;;;;65.03;23.40;;;;;;;19.40;24.86;156228.22;1708261;84;21337;-81
2021/03/11 00:03:28;;;;;;;59.03;21.62;;;;;;;19.34;24.94;156212.33;1743030;81;21313;-81
2021/03/11 00:06:01;;;;;;;57.60;21.97;;;;;;;19.31;24.99;156204.44;1711875;84;21268;-81
2021/03/11 00:08:33;;;;;;;53.08;20.97;;;;;;;19.27;25.05;156193.86;1711980;84;21166;-81
2021/03/11 00:11:07;;;;;;;53.70;19.32;;;;;;;19.28;25.04;156196.50;1711774;83;21670;-80
2021/03/11 00:13:40;;;;;;;52.45;20.32;;;;;;;19.25;25.08;156188.56;1725350;81;21227;-84
2021/03/11 00:16:13;;;;;;;48.45;17.20;;;;;;;19.21;25.05;156176.69;1737407;82;21242;-84
2021/03/11 00:18:47;;;;;;;45.75;17.87;;;;;;;19.20;24.94;156175.39;1737454;82;21330;-83
2021/03/11 00:21:20;;;;;;;52.62;17.50;;;;;;;19.18;24.89;156170.09;1737457;82;21325;-84
2021/03/11 00:23:52;;;;;;;50.23;18.70;;;;;;;19.03;24.98;156130.41;1752138;81;21845;-83
2021/03/11 00:26:24;;;;;;;51.65;17.35;;;;;;;18.95;25.03;156107.94;1738983;82;21348;-84
2021/03/11 00:28:56;;;;;;;44.00;17.20;;;;;;;18.84;25.10;156078.89;1752001;82;21242;-83
2021/03/11 00:31:29;;;;;;;42.65;17.52;;;;;;;18.87;25.05;156086.83;1750937;82;21187;-83
2021/03/11 00:34:01;;;;;;;39.98;14.50;;;;;;;18.88;25.04;156088.13;1709733;84;21322;-83
2021/03/11 00:36:33;;;;;;;45.60;15.95;;;;;;;18.85;25.01;156080.25;1709470;84;21227;-82
2021/03/11 00:39:06;;;;;;;43.63;15.40;;;;;;;18.85;25.03;156080.25;1712711;83;21195;-84
2021/03/11 00:41:39;;;;;;;35.55;13.32;;;;;;;18.86;24.99;156082.89;1724656;81;21187;-83
2021/03/11 00:44:11;;;;;;;36.13;13.88;;;;;;;18.80;25.07;156067.02;1721283;83;21183;-83
2021/03/11 00:46:44;;;;;;;40.70;15.23;;;;;;;18.75;25.10;156055.14;1721798;83;21337;-82
2021/03/11 00:49:16;;;;;;;42.48;13.72;;;;;;;18.77;25.16;156059.08;1725838;83;21231;-84
2021/03/11 00:51:48;;;;;;;40.95;16.12;;;;;;;18.74;25.17;156052.50;1727805;81;22067;-84
2021/03/11 00:54:21;;;;;;;42.62;15.98;;;;;;;18.72;25.18;156047.20;1754728;82;21882;-84
2021/03/11 00:56:53;;;;;;;39.67;15.20;;;;;;;18.72;25.23;156047.20;1754507;82;21345;-83
2021/03/11 00:59:25;;;;;;;43.40;16.30;;;;;;;18.67;25.32;156032.69;1752416;81;21330;-83
2021/03/11 01:01:58;;;;;;;38.17;15.23;;;;;;;18.71;25.31;156043.27;1786596;80;21816;-83
2021/03/11 01:04:30;;;;;;;42.15;16.40;;;;;;;18.81;25.23;156069.66;1800482;80;21297;-83
2021/03/11 01:07:04;;;;;;;41.08;16.52;;;;;;;18.81;25.15;156070.97;1800398;80;21175;-85
2021/03/11 01:09:38;;;;;;;43.65;16.40;;;;;;;18.84;25.18;156077.59;1800347;80;21191;-83
2021/03/11 01:12:15;;;;;;;45.12;17.75;;;;;;;18.91;25.16;156096.06;1767557;80;21805;-84
2021/03/11 01:14:47;;;;;;;52.45;19.12;;;;;;;18.87;25.25;156086.83;1762138;81;21808;-84
2021/03/11 01:17:19;;;;;;;49.93;18.27;;;;;;;18.92;25.32;156098.70;1762182;81;21230;-84
2021/03/11 01:19:51;;;;;;;46.70;17.17;;;;;;;18.84;25.38;156077.59;1761977;81;21167;-83
2021/03/11 01:22:24;;;;;;;52.90;18.30;;;;;;;18.78;25.38;156063.08;1789511;79;21159;-83
2021/03/11 01:24:56;;;;;;;58.42;19.07;;;;;;;18.79;25.43;156064.38;1789979;80;21175;-84
2021/03/11 01:27:28;;;;;;;47.48;18.12;;;;;;;18.81;25.32;156070.97;1789725;80;21333;-83
2021/03/11 01:30:01;;;;;;;53.68;21.50;;;;;;;18.82;25.35;156073.61;1788463;79;21238;-84
2021/03/11 01:32:34;;;;;;;53.55;18.57;;;;;;;18.84;25.34;156078.89;1805588;79;21316;-84
2021/03/11 01:35:07;;;;;;;49.00;18.05;;;;;;;18.85;25.31;156080.25;1805678;79;21179;-84
2021/03/11 01:37:39;;;;;;;42.43;15.45;;;;;;;18.82;25.30;156073.61;1805630;79;21328;-84
2021/03/11 01:40:12;;;;;;;45.48;16.05;;;;;;;18.87;25.22;156086.83;1797900;79;21160;-84
2021/03/11 01:42:44;;;;;;;41.53;15.75;;;;;;;18.86;25.18;156084.19;1762091;81;21317;-84
2021/03/11 01:45:18;;;;;;;41.10;13.98;;;;;;;18.84;25.15;156077.59;1762156;81;21309;-83
2021/03/11 01:47:50;;;;;;;36.50;13.98;;;;;;;18.81;25.18;156070.97;1762235;81;21294;-84
2021/03/11 01:50:23;;;;;;;42.08;15.10;;;;;;;18.78;25.21;156063.08;1768975;80;21281;-85
2021/03/11 01:52:55;;;;;;;45.75;15.58;;;;;;;18.92;25.16;156098.70;1789888;80;21207;-85
2021/03/11 01:55:29;;;;;;;42.05;15.03;;;;;;;18.85;25.21;156081.55;1789832;80;21785;-85
2021/03/11 01:58:01;;;;;;;43.05;16.65;;;;;;;18.90;25.20;156094.77;1773830;81;21212;-85
2021/03/11 02:00:33;;;;;;;42.65;17.23;;;;;;;18.97;25.18;156113.23;1737690;82;21384;-84
2021/03/11 02:03:06;;;;;;;42.53;15.68;;;;;;;18.99;25.20;156118.53;1739321;82;21171;-84
2021/03/11 02:05:38;;;;;;;47.55;16.12;;;;;;;19.01;25.24;156122.47;1720766;81;21317;-83
2021/03/11 02:08:11;;;;;;;37.98;14.60;;;;;;;18.99;25.21;156117.19;1712053;84;21176;-85
2021/03/11 02:10:43;;;;;;;36.93;13.98;;;;;;;19.03;25.11;156127.77;1741593;81;21309;-85
2021/03/11 02:13:55;;;;;;;32.25;12.80;;;;;;;19.01;25.02;156122.47;1741362;82;21364;-85
2021/03/11 02:16:33;;;;;;;34.23;12.28;;;;;;;18.88;24.97;156088.13;1746102;81;21941;-84
2021/03/11 02:19:33;;;;;;;38.15;15.03;;;;;;;18.88;24.91;156088.13;1756901;81;21364;-84
2021/03/11 02:22:22;;;;;;;32.83;14.65;;;;;;;18.83;25.00;156074.95;1779408;80;21320;-84
2021/03/11 02:25:32;;;;;;;30.85;12.18;;;;;;;18.73;25.14;156049.84;1778046;80;21166;-85
2021/03/11 02:28:38;;;;;;;36.23;14.68;;;;;;;18.79;25.10;156064.38;1759075;80;21289;-81
2021/03/11 02:31:10;;;;;;;37.20;14.05;;;;;;;18.78;25.22;156063.08;1769089;81;21360;-81
2021/03/11 02:33:43;;;;;;;59.10;19.17;;;;;;;18.82;25.26;156072.31;1767128;81;21305;-81
2021/03/11 02:36:15;;;;;;;41.37;16.37;;;;;;;18.78;25.31;156063.08;1767047;81;21337;-82
2021/03/11 02:38:48;;;;;;;41.40;18.02;;;;;;;18.80;25.34;156067.02;1767094;81;21218;-82
2021/03/11 02:41:20;;;;;;;47.17;16.37;;;;;;;18.74;25.32;156052.50;1766179;81;21388;-81
2021/03/11 02:43:53;;;;;;;45.00;17.80;;;;;;;18.64;25.33;156024.75;1804495;79;21155;-81
2021/03/11 02:46:25;;;;;;;49.48;16.95;;;;;;;18.49;25.39;155985.19;1805855;79;21217;-82
2021/03/11 02:48:57;;;;;;;48.15;17.73;;;;;;;18.51;25.40;155990.47;1810816;79;21399;-81
2021/03/11 02:51:30;;;;;;;42.55;16.80;;;;;;;18.55;25.44;156002.34;1796973;79;21329;-82
2021/03/11 02:54:02;;;;;;;51.50;18.92;;;;;;;18.57;25.48;156006.28;1796295;80;21297;-82
2021/03/11 02:56:35;;;;;;;52.48;19.50;;;;;;;18.67;25.40;156034.03;1797745;80;21167;-83
2021/03/11 02:59:08;;;;;;;47.93;18.40;;;;;;;18.61;25.43;156018.16;1772384;79;21155;-81
2021/03/11 03:01:40;;;;;;;45.40;17.37;;;;;;;18.71;25.35;156044.56;1765941;81;21345;-81
2021/03/11 03:04:13;;;;;;;53.30;20.27;;;;;;;18.73;25.32;156048.56;1764688;81;21151;-81
2021/03/11 03:06:45;;;;;;;68.95;24.23;;;;;;;18.77;25.31;156059.08;1764799;81;21318;-81
2021/03/11 03:09:19;;;;;;;70.72;22.10;;;;;;;18.78;25.28;156063.08;1764563;81;21337;-81
2021/03/11 03:11:51;;;;;;;63.38;23.52;;;;;;;18.71;25.32;156043.27;1743886;81;21856;-80
2021/03/11 03:14:23;;;;;;;60.33;22.87;;;;;;;18.64;25.42;156026.09;1764778;81;21812;-82
2021/03/11 03:16:56;;;;;;;68.78;25.70;;;;;;;18.65;25.33;156028.75;1795310;79;21159;-82
2021/03/11 03:19:28;;;;;;;78.97;28.83;;;;;;;18.62;25.37;156020.81;1790208;79;21347;-82
2021/03/11 03:22:00;;;;;;;76.90;28.35;;;;;;;18.46;25.54;155977.25;1792264;80;21355;-82
2021/03/11 03:24:33;;;;;;;73.07;26.77;;;;;;;18.40;25.59;155961.44;1792352;80;21314;-81
2021/03/11 03:27:07;;;;;;;71.17;27.15;;;;;;;18.29;25.61;155932.34;1792316;80;21317;-80
2021/03/11 03:29:40;;;;;;;76.53;28.45;;;;;;;18.30;25.55;155935.00;1792501;80;21196;-81
2021/03/11 03:32:12;;;;;;;69.35;27.22;;;;;;;18.26;25.57;155924.47;1792346;80;21368;-82
2021/03/11 03:34:45;;;;;;;75.17;26.82;;;;;;;18.20;25.48;155908.55;1788589;79;21340;-82
2021/03/11 03:37:17;;;;;;;64.75;25.32;;;;;;;18.14;25.45;155892.73;1764487;81;21345;-82
2021/03/11 03:39:49;;;;;;;73.65;27.40;;;;;;;18.09;25.46;155879.53;1744019;81;21179;-81
2021/03/11 03:42:23;;;;;;;72.92;27.60;;;;;;;18.04;25.51;155865.00;1764567;81;21314;-82
2021/03/11 03:44:56;;;;;;;73.28;25.15;;;;;;;18.00;25.50;155854.44;1764595;81;21334;-82
2021/03/11 03:47:28;;;;;;;65.57;24.98;;;;;;;17.99;25.49;155851.84;1764588;81;21183;-81
2021/03/11 03:50:00;;;;;;;69.05;24.37;;;;;;;17.99;25.53;155851.84;1764670;81;21329;-82
2021/03/11 03:52:32;;;;;;;67.55;26.77;;;;;;;17.93;25.55;155837.33;1764541;81;21321;-82
2021/03/11 03:55:06;;;;;;;67.65;26.73;;;;;;;17.92;25.66;155833.34;1764508;81;21325;-81
2021/03/11 03:57:41;;;;;;;61.28;23.50;;;;;;;17.90;25.66;155828.06;1765779;80;21151;-81
2021/03/11 04:00:15;;;;;;;57.15;22.98;;;;;;;17.89;25.68;155826.75;1792225;80;21171;-82
2021/03/11 04:02:47;;;;;;;63.45;21.73;;;;;;;17.87;25.67;155820.19;1792157;80;21356;-80
2021/03/11 04:05:20;;;;;;;59.48;22.50;;;;;;;17.83;25.65;155809.61;1792122;80;21317;-81
2021/03/11 04:07:54;;;;;;;66.00;24.45;;;;;;;17.81;25.58;155804.31;1792302;80;21314;-82
2021/03/11 04:10:26;;;;;;;63.78;22.30;;;;;;;17.73;25.56;155784.53;1792306;80;21333;-82
2021/03/11 04:12:58;;;;;;;55.45;22.07;;;;;;;17.76;25.54;155791.16;1792486;80;21306;-81
2021/03/11 04:15:31;;;;;;;58.35;21.33;;;;;;;17.69;25.61;155774.00;1792273;80;21318;-82
2021/03/11 04:18:04;;;;;;;55.52;20.82;;;;;;;17.77;25.49;155793.75;1792192;80;21301;-81
2021/03/11 04:20:37;;;;;;;52.45;19.67;;;;;;;17.75;25.53;155788.52;1781067;79;21194;-84
2021/03/11 04:23:09;;;;;;;51.15;20.95;;;;;;;17.77;25.50;155795.09;1765071;79;22099;-84
2021/03/11 04:25:41;;;;;;;56.90;20.12;;;;;;;17.71;25.57;155779.23;1769934;79;21162;-81
2021/03/11 04:28:13;;;;;;;51.10;20.80;;;;;;;17.67;25.58;155767.38;1808218;79;21845;-80
2021/03/11 04:30:46;;;;;;;50.58;22.22;;;;;;;17.65;25.59;155762.14;1808218;79;21365;-82
2021/03/11 04:33:18;;;;;;;55.90;22.77;;;;;;;17.66;25.57;155766.08;1808050;79;21168;-79
2021/03/11 04:35:52;;;;;;;68.10;23.00;;;;;;;17.60;25.60;155748.92;1808017;79;21175;-81
2021/03/11 04:38:26;;;;;;;61.10;22.80;;;;;;;17.64;25.58;155760.80;1790120;79;21938;-80
2021/03/11 04:41:00;;;;;;;51.23;19.98;;;;;;;17.63;25.62;155758.16;1766589;79;21686;-78
2021/03/11 04:43:33;;;;;;;57.13;23.87;;;;;;;17.68;25.61;155771.36;1741552;81;21198;-77
2021/03/11 04:46:08;;;;;;;65.35;24.27;;;;;;;17.78;25.60;155796.39;1742788;80;22160;-86
2021/03/11 04:48:41;;;;;;;67.15;26.55;;;;;;;17.83;25.60;155809.61;1742924;81;21384;-82
2021/03/11 04:51:16;;;;;;;65.55;26.37;;;;;;;17.80;25.58;155803.02;1741647;81;21340;-87
2021/03/11 04:53:49;;;;;;;66.12;26.05;;;;;;;17.87;25.58;155821.47;1741361;81;21847;-81
2021/03/11 04:56:27;;;;;;;71.10;25.20;;;;;;;17.83;25.63;155810.91;1743325;81;21320;-76
2021/03/11 04:59:02;;;;;;;59.30;23.83;;;;;;;17.79;25.69;155800.38;1746365;81;21202;-81
2021/03/11 05:01:42;;;;;;;66.37;24.05;;;;;;;17.87;25.79;155821.47;1741051;81;21183;-78
2021/03/11 05:04:15;;;;;;;75.92;27.82;;;;;;;18.00;25.78;155855.78;1733505;81;21828;-79
2021/03/11 05:06:48;;;;;;;60.40;24.60;;;;;;;18.09;25.80;155878.22;1739074;81;21321;-81
2021/03/11 05:09:21;;;;;;;75.80;28.47;;;;;;;18.16;25.80;155898.03;1742668;81;21171;-80
2021/03/11 05:11:53;;;;;;;91.72;32.30;;;;;;;18.16;25.77;155899.33;1742014;81;21193;-81
2021/03/11 05:14:26;;;;;;;120.70;37.80;;;;;;;18.28;25.75;155931.05;1742770;81;21158;-81
2021/03/11 05:16:58;;;;;;;155.18;48.55;;;;;;;18.29;25.72;155933.69;1741215;81;21328;-82
2021/03/11 05:19:32;;;;;;;157.70;46.05;;;;;;;18.32;25.79;155940.28;1749888;81;21356;-81
2021/03/11 05:22:07;;;;;;;168.75;54.73;;;;;;;18.30;25.85;155936.34;1718360;81;21324;-82
2021/03/11 05:24:40;;;;;;;162.15;53.60;;;;;;;18.27;25.91;155927.11;1739714;81;21301;-83
2021/03/11 05:27:14;;;;;;;173.22;52.27;;;;;;;18.34;25.89;155945.56;1729608;81;21219;-78
2021/03/11 05:29:48;;;;;;;156.78;52.20;;;;;;;18.43;25.92;155969.31;1713928;82;21140;-82
2021/03/11 05:32:21;;;;;;;164.62;52.48;;;;;;;18.55;25.87;156002.34;1723430;80;21709;-77
2021/03/11 05:34:53;;;;;;;142.77;47.75;;;;;;;18.65;25.90;156027.39;1719555;82;21714;-80
2021/03/11 05:37:25;;;;;;;137.30;45.63;;;;;;;18.63;25.90;156022.16;1720821;82;21436;-77
2021/03/11 05:39:58;;;;;;;117.17;42.38;;;;;;;18.79;25.96;156064.38;1780139;79;21332;-78
2021/03/11 05:42:40;;;;;;;112.65;41.77;;;;;;;18.92;25.94;156100.06;1791852;79;21310;-75
2021/03/11 05:45:21;;;;;;;87.75;32.10;;;;;;;19.03;25.87;156130.41;1779576;79;22416;-86
2021/03/11 05:47:58;;;;;;;62.80;25.60;;;;;;;18.98;25.98;156114.58;1734283;81;21353;-80
2021/03/11 05:50:36;;;;;;;45.83;21.00;;;;;;;19.06;25.98;156138.34;1762586;79;21174;-78
2021/03/11 05:53:22;;;;;;;41.45;18.35;;;;;;;19.12;25.90;156154.22;1777694;79;21351;-74
2021/03/11 05:56:05;;;;;;;38.02;15.98;;;;;;;19.23;25.81;156181.97;1781368;79;21336;-77
2021/03/11 05:58:39;;;;;;;39.65;16.00;;;;;;;19.34;25.73;156212.33;1783892;79;21285;-81
2021/03/11 06:01:12;;;;;;;43.00;16.48;;;;;;;19.48;25.67;156249.33;1789665;79;21868;-79
2021/03/11 06:03:45;;;;;;;44.73;17.55;;;;;;;19.63;25.57;156288.98;1777337;79;21387;-79
2021/03/11 06:06:17;;;;;;;44.40;17.62;;;;;;;19.76;25.45;156322.00;1748463;80;21321;-77
2021/03/11 06:08:53;;;;;;;44.38;18.87;;;;;;;19.84;25.37;156344.47;1768093;81;21301;-77
2021/03/11 06:11:26;;;;;;;38.85;16.52;;;;;;;19.99;25.29;156384.19;1752682;81;21357;-79
2021/03/11 06:13:58;;;;;;;30.17;14.05;;;;;;;20.11;25.19;156415.91;1773623;81;21195;-78
2021/03/11 06:16:32;;;;;;;25.97;12.10;;;;;;;20.30;25.13;156466.13;1773526;81;21344;-78
2021/03/11 06:19:05;;;;;;;31.80;12.68;;;;;;;20.40;25.06;156492.56;1773650;81;21317;-79
2021/03/11 06:21:38;;;;;;;32.83;12.82;;;;;;;20.39;24.80;156491.27;1773533;81;21329;-79
2021/03/11 06:24:11;;;;;;;26.10;10.72;;;;;;;20.49;24.87;156517.70;1773559;81;21179;-77
2021/03/11 06:26:45;;;;;;;23.57;9.50;;;;;;;20.63;24.75;156553.39;1773560;81;21313;-77
2021/03/11 06:29:18;;;;;;;18.77;8.08;;;;;;;20.74;24.42;156583.83;1773760;81;21800;-78
2021/03/11 06:31:50;;;;;;;15.60;7.87;;;;;;;20.76;24.37;156589.13;1773508;81;21333;-77
2021/03/11 06:34:23;;;;;;;13.88;6.65;;;;;;;20.85;24.43;156611.63;1752520;81;21253;-77
2021/03/11 06:36:55;;;;;;;14.13;6.10;;;;;;;20.88;24.00;156620.92;1773720;81;21745;-77
2021/03/11 06:39:30;;;;;;;13.55;5.67;;;;;;;20.79;24.13;156597.08;1773711;81;21222;-78
2021/03/11 06:42:02;;;;;;;12.43;5.45;;;;;;;20.70;24.08;156571.94;1773711;81;21175;-77
2021/03/11 06:44:42;;;;;;;11.60;6.12;;;;;;;20.85;23.93;156612.97;1773483;80;21691;-77
2021/03/11 06:47:17;;;;;;;10.93;5.73;;;;;;;21.03;23.71;156661.92;1773974;81;21325;-77
2021/03/11 06:50:02;;;;;;;12.07;5.87;;;;;;;21.04;23.63;156663.22;1773499;81;21175;-77
2021/03/11 06:52:35;;;;;;;9.75;5.05;;;;;;;21.24;23.61;156717.48;1752355;81;21214;-77
2021/03/11 06:55:10;;;;;;;17.12;5.85;;;;;;;21.33;23.47;156739.98;1773554;81;21844;-77
2021/03/11 06:57:42;;;;;;;12.28;6.58;;;;;;;21.33;23.46;156741.28;1773607;81;21867;-77
2021/03/11 07:00:23;;;;;;;13.28;6.03;;;;;;;21.60;23.41;156812.81;1773735;81;21789;-77
2021/03/11 07:03:05;;;;;;;11.27;5.07;;;;;;;21.79;23.11;156861.78;1773758;81;21170;-77
2021/03/11 07:05:35;;;;;;;12.43;4.67;;;;;;;21.85;22.98;156879.00;1773942;80;21234;-77
2021/03/11 07:08:17;;;;;;;10.25;5.47;;;;;;;21.87;22.73;156884.31;1729078;80;21867;-77
2021/03/11 07:10:49;;;;;;;9.45;4.72;;;;;;;21.82;22.68;156871.05;1778845;80;21170;-77
2021/03/11 07:13:21;;;;;;;9.68;4.70;;;;;;;21.86;22.56;156882.95;1778743;80;21313;-77
2021/03/11 07:15:56;;;;;;;12.58;5.00;;;;;;;22.05;22.58;156931.94;1778626;80;21178;-77
2021/03/11 07:18:32;;;;;;;12.33;5.53;;;;;;;22.17;22.47;156965.03;1778761;80;21312;-78
2021/03/11 07:21:05;;;;;;;14.60;6.22;;;;;;;22.33;22.36;157007.47;1778760;80;21320;-78
2021/03/11 07:23:49;;;;;;;11.38;5.75;;;;;;;22.64;22.33;157089.56;1778871;80;21372;-78
2021/03/11 07:26:21;;;;;;;11.78;5.80;;;;;;;22.58;22.38;157073.69;1776263;80;21316;-78
2021/03/11 07:28:53;;;;;;;11.90;5.83;;;;;;;22.74;22.02;157114.75;1778608;80;21677;-78
2021/03/11 07:31:29;;;;;;;12.90;5.50;;;;;;;22.87;22.04;157151.84;1778853;80;21353;-78
2021/03/11 07:34:01;;;;;;;11.68;5.10;;;;;;;22.95;21.85;157173.03;1778695;80;21328;-78
2021/03/11 07:36:33;;;;;;;16.48;6.78;;;;;;;22.97;21.56;157177.05;1778692;80;21744;-78
2021/03/11 07:39:09;;;;;;;13.55;6.42;;;;;;;23.01;21.77;157188.95;1778601;80;21218;-78
2021/03/11 07:41:41;;;;;;;11.90;5.25;;;;;;;23.08;21.75;157206.25;1778840;80;21313;-78
2021/03/11 07:44:14;;;;;;;12.88;5.92;;;;;;;23.21;21.68;157242.00;1778980;80;21316;-78
2021/03/11 07:46:46;;;;;;;11.75;5.83;;;;;;;23.61;21.62;157348.02;1778673;80;21304;-78
2021/03/11 07:49:18;;;;;;;11.75;5.78;;;;;;;23.72;21.29;157377.22;1778688;80;21360;-78
2021/03/11 07:51:51;;;;;;;13.53;5.25;;;;;;;23.77;21.24;157390.50;1778885;80;21384;-78
2021/03/11 07:54:23;;;;;;;12.03;5.65;;;;;;;23.92;21.13;157430.30;1778878;80;21832;-75
2021/03/11 07:56:56;;;;;;;12.30;5.85;;;;;;;23.95;21.02;157439.56;1778760;80;21324;-76
2021/03/11 07:59:28;;;;;;;11.55;5.08;;;;;;;24.03;20.87;157460.77;1778738;80;21329;-76
2021/03/11 08:02:08;;;;;;;10.13;4.78;;;;;;;24.09;20.89;157476.70;1778667;80;21178;-76
2021/03/11 08:04:44;;;;;;;14.28;5.00;;;;;;;24.20;20.82;157504.53;1778954;80;21182;-77
2021/03/11 08:07:27;;;;;;;9.28;4.42;;;;;;;24.32;20.88;157536.36;1772248;80;21195;-76
2021/03/11 08:10:00;;;;;;;8.85;4.42;;;;;;;24.47;20.79;157576.22;1774399;80;21301;-77
2021/03/11 08:12:37;;;;;;;11.08;4.70;;;;;;;24.63;20.79;157618.69;1778667;80;21329;-76
2021/03/11 08:15:27;;;;;;;9.15;3.52;;;;;;;24.72;20.88;157645.22;1778673;80;21336;-77
2021/03/11 08:18:02;;;;;;;7.75;4.30;;;;;;;24.82;20.24;157671.75;1778658;80;21312;-76
2021/03/11 08:20:37;;;;;;;8.25;4.15;;;;;;;24.77;20.34;157658.47;1763026;81;21294;-76
2021/03/11 08:23:11;;;;;;;8.78;4.90;;;;;;;24.74;20.52;157649.19;1775942;80;21300;-76
2021/03/11 08:25:43;;;;;;;8.85;4.15;;;;;;;24.80;20.35;157665.12;1762966;81;21326;-76
2021/03/11 08:28:21;;;;;;;7.33;4.40;;;;;;;24.89;20.45;157690.31;1763039;81;21163;-76
2021/03/11 08:31:10;;;;;;;7.28;3.92;;;;;;;25.09;20.17;157742.08;1761829;81;21218;-76
2021/03/11 08:33:42;;;;;;;7.55;4.05;;;;;;;25.12;19.54;157750.11;1761283;81;21321;-76
2021/03/11 08:36:24;;;;;;;6.55;4.15;;;;;;;25.25;19.69;157784.63;1768468;80;21337;-77
2021/03/11 08:38:56;;;;;;;6.17;3.95;;;;;;;26.90;19.16;158225.72;1751656;81;21330;-77
2021/03/11 08:41:31;;;;;;;5.87;3.58;;;;;;;28.81;18.58;158736.63;1765654;80;21300;-77
2021/03/11 08:44:04;;;;;;;5.83;3.60;;;;;;;30.27;17.50;159126.94;1778956;80;21316;-77
2021/03/11 08:46:51;;;;;;;6.58;3.60;;;;;;;31.14;16.73;159361.61;1778956;80;21353;-77
2021/03/11 08:49:38;;;;;;;4.40;3.10;;;;;;;31.77;16.25;159531.03;1750044;81;21230;-77
2021/03/11 08:52:40;;;;;;;9.33;3.30;;;;;;;32.28;16.20;159667.19;1772507;80;21722;-77
2021/03/11 08:55:36;;;;;;;4.10;2.75;;;;;;;32.80;15.68;159806.06;1779057;80;21305;-77
2021/03/11 08:58:25;;;;;;;5.40;3.08;;;;;;;32.57;15.56;159744.61;1778697;80;21879;-77
2021/03/11 09:01:05;;;;;;;4.28;2.60;;;;;;;32.20;15.62;159645.84;1735886;81;21221;-77
2021/03/11 09:03:41;;;;;;;4.12;2.20;;;;;;;32.19;15.49;159643.19;1776490;80;21320;-76
2021/03/11 09:06:16;;;;;;;4.37;2.72;;;;;;;32.09;15.44;159616.50;1778832;80;21363;-77
2021/03/11 09:08:53;;;;;;;3.77;2.52;;;;;;;32.33;15.52;159680.55;1778806;80;21753;-76
2021/03/11 09:11:25;;;;;;;7.03;3.10;;;;;;;33.20;15.39;159914.25;1773872;80;21206;-77
2021/03/11 09:13:58;;;;;;;6.60;3.25;;;;;;;34.23;14.96;160192.20;1773614;81;21317;-77
2021/03/11 09:16:30;;;;;;;5.80;3.52;;;;;;;35.23;14.37;160459.63;1752716;81;21336;-77
2021/03/11 09:19:02;;;;;;;6.22;2.95;;;;;;;35.65;14.17;160573.34;1773545;81;21689;-77
2021/03/11 09:21:35;;;;;;;5.87;3.40;;;;;;;35.71;13.97;160588.06;1773789;81;21333;-76
2021/03/11 09:24:18;;;;;;;5.45;2.72;;;;;;;35.58;14.09;160553.28;1773713;81;21321;-77
2021/03/11 09:26:51;;;;;;;4.70;2.55;;;;;;;36.04;13.92;160676.41;1759175;81;21871;-77
2021/03/11 09:29:23;;;;;;;4.97;3.25;;;;;;;36.35;13.55;160762.02;1773544;81;21321;-77
2021/03/11 09:31:55;;;;;;;3.95;2.60;;;;;;;35.65;13.86;160573.34;1773732;81;21313;-76
2021/03/11 09:34:27;;;;;;;6.12;2.87;;;;;;;35.00;13.90;160398.06;1773695;81;21360;-77
2021/03/11 09:37:00;;;;;;;4.22;2.40;;;;;;;34.74;14.02;160327.22;1773624;81;21198;-77
2021/03/11 09:39:32;;;;;;;5.53;2.62;;;;;;;34.61;13.98;160293.78;1773625;81;21322;-76
2021/03/11 09:42:10;;;;;;;4.03;2.65;;;;;;;34.45;14.16;160250.98;1773501;81;22260;-77
2021/03/11 09:44:45;;;;;;;4.45;2.80;;;;;;;34.76;14.02;160333.89;1773405;81;21867;-76
2021/03/11 09:47:29;;;;;;;5.20;3.20;;;;;;;35.33;13.76;160487.72;1773557;81;21329;-76
2021/03/11 09:50:12;;;;;;;6.05;3.10;;;;;;;35.90;13.81;160640.23;1773568;81;21322;-77
2021/03/11 09:52:58;;;;;;;5.85;3.00;;;;;;;36.27;13.53;160739.31;1773639;81;21318;-76
2021/03/11 09:55:31;;;;;;;3.67;2.70;;;;;;;35.84;13.67;160624.16;1773726;81;21328;-76
2021/03/11 09:58:03;;;;;;;5.40;2.98;;;;;;;35.43;13.48;160513.09;1773644;81;21349;-76
2021/03/11 10:00:37;;;;;;;5.65;2.92;;;;;;;35.31;13.74;160482.36;1772469;80;21301;-76
2021/03/11 10:03:23;;;;;;;3.80;2.70;;;;;;;35.23;13.86;160459.63;1773685;81;21678;-76
2021/03/11 10:06:01;;;;;;;4.42;2.98;;;;;;;35.38;13.91;160499.75;1773694;81;21792;-76
2021/03/11 10:08:41;;;;;;;4.03;2.50;;;;;;;35.79;13.90;160609.45;1737591;82;21859;-76
2021/03/11 10:11:18;;;;;;;5.85;3.17;;;;;;;35.63;13.49;160568.00;1744146;82;21354;-76
2021/03/11 10:13:57;;;;;;;6.30;2.83;;;;;;;35.69;13.71;160582.70;1760731;80;21233;-76
2021/03/11 10:16:47;;;;;;;3.62;3.00;;;;;;;36.66;13.56;160845.08;1778904;80;21324;-76
2021/03/11 10:19:22;;;;;;;6.67;3.42;;;;;;;37.77;13.28;161143.77;1778996;80;21304;-76
2021/03/11 10:22:07;;;;;;;5.53;3.52;;;;;;;38.49;12.86;161338.13;1779013;80;21675;-76
2021/03/11 10:24:43;;;;;;;4.45;2.98;;;;;;;38.64;13.03;161378.34;1778946;80;21835;-75
2021/03/11 10:27:32;;;;;;;5.33;2.70;;;;;;;38.95;12.64;161461.47;1779030;80;21178;-76
2021/03/11 10:30:29;;;;;;;4.83;3.55;;;;;;;38.60;12.76;161366.28;1778942;80;21794;-76
2021/03/11 10:33:00;;;;;;;7.90;3.60;;;;;;;38.02;12.83;161212.13;1778403;80;21329;-76
2021/03/11 10:35:38;;;;;;;4.47;3.20;;;;;;;37.47;12.97;161062.06;1778937;80;21317;-76
2021/03/11 10:38:18;;;;;;;4.28;2.52;;;;;;;37.46;13.24;161060.70;1778847;80;21445;-76
2021/03/11 10:40:50;;;;;;;3.67;2.67;;;;;;;37.63;12.95;161104.89;1778885;80;21316;-76
2021/03/11 10:43:32;;;;;;;5.87;3.22;;;;;;;38.17;12.73;161250.97;1778868;80;21182;-76
2021/03/11 10:46:00;;;;;;;3.98;3.00;;;;;;;38.33;12.72;161295.22;1778764;80;21332;-76
2021/03/11 10:48:50;;;;;;;4.47;3.05;;;;;;;38.17;12.67;161252.33;1778847;80;21186;-76
2021/03/11 10:51:25;;;;;;;6.55;3.20;;;;;;;38.27;12.89;161277.81;1778994;80;21872;-76
2021/03/11 10:54:01;;;;;;;4.90;2.72;;;;;;;38.79;12.65;161418.56;1778918;80;21182;-76
2021/03/11 10:56:33;;;;;;;4.17;2.87;;;;;;;38.95;12.54;161460.16;1778965;80;21371;-76
2021/03/11 10:59:14;;;;;;;4.03;2.80;;;;;;;39.27;12.36;161547.31;1778760;80;21190;-76
2021/03/11 11:01:43;;;;;;;4.00;2.70;;;;;;;39.59;12.36;161633.16;1779132;80;21372;-76
2021/03/11 11:04:16;;;;;;;4.55;2.58;;;;;;;39.92;12.30;161721.72;1778958;80;21175;-76
2021/03/11 11:06:48;;;;;;;6.37;3.27;;;;;;;40.55;12.29;161893.52;1778790;80;21339;-76
2021/03/11 11:09:21;;;;;;;6.08;3.35;;;;;;;40.87;12.05;161978.13;1778772;80;21824;-76
2021/03/11 11:11:54;;;;;;;4.45;3.17;;;;;;;40.39;12.01;161850.61;1778970;80;21400;-76
2021/03/11 11:14:26;;;;;;;5.62;3.33;;;;;;;39.19;12.19;161527.19;1778892;80;21321;-75
2021/03/11 11:16:58;;;;;;;8.90;3.55;;;;;;;39.00;12.31;161474.91;1778934;80;21179;-74
2021/03/11 11:19:31;;;;;;;5.42;3.27;;;;;;;39.50;12.24;161608.98;1778814;80;21827;-74
2021/03/11 11:22:03;;;;;;;6.25;2.77;;;;;;;39.60;12.29;161637.22;1778838;80;21309;-74
2021/03/11 11:24:38;;;;;;;4.37;3.00;;;;;;;40.05;12.14;161759.30;1778924;80;21895;-74
2021/03/11 11:27:12;;;;;;;4.75;3.45;;;;;;;40.86;12.09;161975.44;1778835;80;21305;-74
2021/03/11 11:29:44;;;;;;;4.35;2.72;;;;;;;41.37;12.03;162113.73;1778977;80;21309;-74
2021/03/11 11:32:16;;;;;;;4.47;3.12;;;;;;;41.82;11.73;162236.00;1778887;80;21677;-74
2021/03/11 11:34:49;;;;;;;6.20;2.77;;;;;;;41.63;11.61;162184.94;1779057;80;21309;-74
2021/03/11 11:37:23;;;;;;;3.75;2.70;;;;;;;41.46;11.55;162139.25;1778788;80;21340;-74
2021/03/11 11:39:55;;;;;;;5.33;3.10;;;;;;;40.98;11.79;162010.34;1778838;80;21341;-74
2021/03/11 11:42:27;;;;;;;9.95;3.92;;;;;;;40.76;11.93;161948.59;1778873;80;21312;-74
2021/03/11 11:44:59;;;;;;;7.20;4.33;;;;;;;41.05;11.84;162029.11;1778779;80;21187;-74
2021/03/11 11:47:32;;;;;;;7.30;4.85;;;;;;;40.75;11.94;161945.91;1779052;80;21356;-74
2021/03/11 11:50:07;;;;;;;7.12;3.85;;;;;;;40.53;11.92;161886.83;1778952;80;21854;-74